Time;durP1;ratioP1;P1;durP2;ratioP2;P2;SDS_P1;SDS_P2;PMS_P1;PMS_P2;Temp;Humidity;BMP_temperature;BMP_pressure;BME280_temperature;BME280_humidity;BME280_pressure;Samples;Min_cycle;Max_cycle;Signal;HPM_P1;HPM_P2
2021/04/08 00:01:38;;;;;;;11.43;5.05;;;;;;;7.78;55.16;101286.53;4392628;32;20046;-73
2021/04/08 00:04:04;;;;;;;23.65;8.65;;;;;;;7.84;55.01;101284.91;4391902;32;20147;-74
2021/04/08 00:06:29;;;;;;;19.55;7.30;;;;;;;7.85;54.99;101266.88;4393358;32;20072;-73
2021/04/08 00:08:55;;;;;;;21.52;9.80;;;;;;;7.92;54.68;101272.47;4395029;32;20065;-74
2021/04/08 00:11:20;;;;;;;20.58;6.32;;;;;;;7.84;54.97;101270.87;4390185;32;20169;-74
2021/04/08 00:13:46;;;;;;;15.23;6.60;;;;;;;7.82;54.83;101262.88;4391750;32;20035;-74
2021/04/08 00:16:12;;;;;;;9.50;4.53;;;;;;;7.81;55.05;101263.28;4394906;32;20529;-74
2021/04/08 00:18:37;;;;;;;15.88;5.95;;;;;;;7.69;55.29;101258.13;4388619;32;20010;-74
2021/04/08 00:21:03;;;;;;;11.12;4.20;;;;;;;7.69;55.21;101264.56;4393112;32;20374;-74
2021/04/08 00:23:29;;;;;;;10.23;3.70;;;;;;;7.56;55.84;101266.22;4391842;32;20522;-74
2021/04/08 00:25:55;;;;;;;13.50;6.12;;;;;;;7.61;55.65;101281.78;4392527;32;20066;-74
2021/04/08 00:28:22;;;;;;;22.67;8.32;;;;;;;7.56;55.66;101273.81;4393390;32;20391;-74
2021/04/08 00:30:47;;;;;;;18.98;7.85;;;;;;;7.50;55.73;101267.81;4392348;32;20093;-74
2021/04/08 00:33:14;;;;;;;14.68;4.50;;;;;;;7.39;56.19;101253.03;4394152;32;20065;-74
2021/04/08 00:35:41;;;;;;;13.25;4.53;;;;;;;7.40;56.22;101259.47;4377920;32;20371;-74
2021/04/08 00:38:08;;;;;;;14.57;5.75;;;;;;;7.31;56.20;101259.88;4393869;32;20087;-75
2021/04/08 00:40:34;;;;;;;12.23;5.78;;;;;;;7.34;56.55;101255.47;4393788;32;20100;-74
2021/04/08 00:43:00;;;;;;;11.90;4.75;;;;;;;7.27;56.47;101256.28;4395317;32;20038;-74
2021/04/08 00:45:26;;;;;;;12.40;4.45;;;;;;;7.16;56.84;101251.91;4394568;32;20078;-74
2021/04/08 00:47:53;;;;;;;17.20;7.57;;;;;;;7.27;56.59;101247.09;4390522;32;20035;-74
2021/04/08 00:50:19;;;;;;;14.23;5.57;;;;;;;7.10;56.66;101247.91;4393535;32;20080;-74
2021/04/08 00:52:51;;;;;;;8.55;3.80;;;;;;;7.05;57.31;101253.91;4394235;32;20420;-74
2021/04/08 00:55:21;;;;;;;11.25;4.97;;;;;;;6.96;57.50;101234.75;4395076;32;20109;-74
2021/04/08 00:57:47;;;;;;;15.80;6.03;;;;;;;6.95;57.72;101235.16;4388625;32;20180;-74
2021/04/08 01:00:13;;;;;;;20.73;7.95;;;;;;;6.95;57.62;101241.56;4392142;32;20026;-73
2021/04/08 01:02:39;;;;;;;25.55;9.00;;;;;;;6.93;57.66;101232.75;4390978;32;20086;-74
2021/04/08 01:05:06;;;;;;;18.25;5.40;;;;;;;6.81;58.13;101232.38;4392441;32;20374;-74
2021/04/08 01:07:33;;;;;;;9.32;3.72;;;;;;;6.73;58.42;101228.00;4391441;32;20096;-74
2021/04/08 01:10:00;;;;;;;9.85;3.37;;;;;;;6.64;58.60;101219.19;4389722;32;20066;-74
2021/04/08 01:12:26;;;;;;;13.57;3.87;;;;;;;6.52;59.16;101211.22;4392904;32;20038;-74
2021/04/08 01:14:51;;;;;;;5.10;2.75;;;;;;;6.40;59.35;101208.81;4393072;32;20092;-74
2021/04/08 01:17:30;;;;;;;11.52;3.33;;;;;;;6.36;59.61;101205.22;4395327;32;20390;-74
2021/04/08 01:26:33;;;;;;;12.32;3.35;;;;;;;6.99;58.01;101213.56;4000806;31;15014738;-75
2021/04/08 01:31:39;;;;;;;8.60;3.20;;;;;;;7.02;57.41;101207.16;4001183;31;15017843;-75
2021/04/08 01:34:09;;;;;;;11.27;3.20;;;;;;;7.02;57.41;101207.16;4458255;32;20033;-73
2021/04/08 01:36:36;;;;;;;8.55;2.97;;;;;;;6.54;58.18;101208.81;4458143;32;20069;-73
2021/04/08 01:39:06;;;;;;;9.32;3.37;;;;;;;6.45;58.42;101203.66;4456797;32;20072;-73
2021/04/08 01:41:38;;;;;;;7.43;3.00;;;;;;;6.53;58.38;101201.66;4455094;32;20081;-74
2021/04/08 01:44:06;;;;;;;6.97;3.03;;;;;;;6.45;58.49;101209.25;4455531;32;20084;-73
2021/04/08 01:46:37;;;;;;;8.40;3.35;;;;;;;6.45;58.57;101217.63;4457083;32;20464;-73
2021/04/08 01:49:05;;;;;;;10.52;4.82;;;;;;;6.57;58.42;101213.63;4457632;32;20518;-73
2021/04/08 01:51:34;;;;;;;8.48;2.87;;;;;;;6.73;57.81;101214.81;4455625;32;20103;-73
2021/04/08 01:54:03;;;;;;;6.10;2.90;;;;;;;6.72;57.70;101215.22;4456423;32;20049;-73
2021/04/08 01:56:37;;;;;;;10.15;2.80;;;;;;;6.71;57.61;101217.19;4457043;32;20038;-75
2021/04/08 01:59:05;;;;;;;9.45;3.20;;;;;;;6.69;57.63;101207.63;4454431;32;20055;-73
2021/04/08 02:01:32;;;;;;;15.55;3.37;;;;;;;6.81;57.30;101202.41;4448032;32;20138;-73
2021/04/08 02:03:59;;;;;;;13.32;3.08;;;;;;;6.81;57.14;101202.41;4440533;32;20108;-74
2021/04/08 02:06:29;;;;;;;6.12;2.65;;;;;;;6.82;57.04;101203.22;4441825;32;20464;-73
2021/04/08 02:08:55;;;;;;;9.23;3.15;;;;;;;6.78;57.32;101202.44;4442799;32;20083;-73
2021/04/08 02:11:24;;;;;;;7.85;2.92;;;;;;;6.72;57.46;101195.63;4437395;32;20142;-74
2021/04/08 02:13:51;;;;;;;9.95;2.70;;;;;;;6.82;57.33;101187.22;4440883;32;20153;-73
2021/04/08 02:16:18;;;;;;;11.07;2.92;;;;;;;6.90;57.13;101186.00;4440316;32;20041;-73
2021/04/08 02:18:46;;;;;;;6.80;3.00;;;;;;;6.99;57.00;101185.56;4440886;32;20468;-73
2021/04/08 02:21:12;;;;;;;13.27;3.20;;;;;;;7.07;56.71;101181.56;4438661;32;20104;-74
2021/04/08 02:23:41;;;;;;;12.60;3.33;;;;;;;6.90;57.17;101188.03;4441792;32;20049;-73
2021/04/08 02:26:09;;;;;;;8.63;2.75;;;;;;;6.84;57.33;101178.44;4440963;32;20041;-74
2021/04/08 02:28:38;;;;;;;6.12;2.80;;;;;;;6.91;57.14;101176.44;4437827;32;20084;-73
2021/04/08 02:31:05;;;;;;;8.90;2.55;;;;;;;6.98;57.19;101182.00;4437101;32;20080;-74
2021/04/08 02:33:31;;;;;;;13.25;3.15;;;;;;;7.11;56.78;101173.94;4439673;32;20069;-73
2021/04/08 02:35:58;;;;;;;11.23;3.17;;;;;;;7.01;56.95;101180.38;4437967;32;20025;-73
2021/04/08 02:38:26;;;;;;;8.23;2.50;;;;;;;7.00;57.03;101181.59;4427559;32;20084;-73
2021/04/08 02:40:55;;;;;;;5.65;2.90;;;;;;;7.10;56.75;101166.75;4436593;32;20102;-73
2021/04/08 02:43:21;;;;;;;9.95;2.85;;;;;;;7.03;56.96;101159.19;4431909;32;20049;-74
2021/04/08 02:45:47;;;;;;;9.98;3.00;;;;;;;6.97;57.45;101162.81;4430643;32;20042;-74
2021/04/08 02:48:16;;;;;;;11.30;2.92;;;;;;;6.93;57.47;101162.81;4430630;32;20098;-73
2021/04/08 02:50:44;;;;;;;9.27;2.78;;;;;;;6.95;57.63;101156.81;4428620;32;20108;-73
2021/04/08 02:53:33;;;;;;;12.73;3.12;;;;;;;7.01;57.76;101160.78;4430943;32;20029;-73
2021/04/08 02:59:08;;;;;;;9.23;2.97;;;;;;;7.50;56.91;101136.22;3985957;32;15023089;-75
2021/04/08 03:01:43;;;;;;;8.98;3.30;;;;;;;7.50;56.91;101136.22;4432145;32;20405;-75
2021/04/08 03:04:11;;;;;;;8.00;2.58;;;;;;;7.03;58.13;101122.03;4438501;32;20074;-75
2021/04/08 03:06:38;;;;;;;8.10;3.05;;;;;;;7.09;58.12;101112.78;4435929;32;20521;-75
2021/04/08 03:09:04;;;;;;;10.13;2.90;;;;;;;7.12;57.97;101103.56;4438128;32;20026;-75
2021/04/08 03:11:34;;;;;;;6.10;2.75;;;;;;;7.03;58.55;101113.62;4434816;32;20059;-75
2021/04/08 03:14:05;;;;;;;7.25;3.20;;;;;;;6.80;59.52;101090.91;4437252;32;20087;-75
2021/04/08 03:16:36;;;;;;;7.40;3.25;;;;;;;6.64;60.15;101090.56;4433554;32;20037;-75
2021/04/08 03:19:03;;;;;;;9.70;3.17;;;;;;;6.45;60.81;101089.03;4438898;32;20135;-74
2021/04/08 03:21:29;;;;;;;9.68;3.10;;;;;;;6.43;61.02;101085.00;4436658;32;20059;-75
2021/04/08 03:23:57;;;;;;;11.85;2.90;;;;;;;6.44;60.88;101087.41;4439017;32;20033;-75
2021/04/08 03:26:26;;;;;;;8.23;3.20;;;;;;;6.37;61.14;101079.03;4436323;32;20068;-75
2021/04/08 03:28:53;;;;;;;7.35;3.28;;;;;;;6.34;61.07;101079.84;4434196;32;20068;-75
2021/04/08 03:31:20;;;;;;;8.73;3.55;;;;;;;6.29;61.60;101090.63;4430195;32;20060;-75
2021/04/08 03:33:47;;;;;;;17.73;3.30;;;;;;;6.37;61.32;101086.62;4434787;32;20067;-75
2021/04/08 03:36:15;;;;;;;7.70;2.90;;;;;;;6.18;62.27;101087.84;4435131;32;20102;-75
2021/04/08 03:38:42;;;;;;;7.07;3.30;;;;;;;6.22;62.30;101102.59;4439416;32;20083;-75
2021/04/08 03:41:09;;;;;;;8.98;4.10;;;;;;;6.32;62.45;101103.81;4437206;32;20085;-75
2021/04/08 03:43:36;;;;;;;13.35;3.42;;;;;;;6.38;62.35;101096.62;4432019;32;20029;-75
2021/04/08 03:46:03;;;;;;;6.18;2.85;;;;;;;6.53;62.36;101085.00;4440348;32;20141;-74
2021/04/08 03:48:32;;;;;;;11.38;3.10;;;;;;;6.65;62.08;101080.97;4436179;32;20017;-75
2021/04/08 03:50:59;;;;;;;11.25;3.40;;;;;;;6.76;62.28;101073.34;4433234;32;20081;-75
2021/04/08 03:53:26;;;;;;;8.85;3.42;;;;;;;6.67;62.84;101071.00;4436885;32;20372;-75
2021/04/08 03:55:54;;;;;;;7.57;3.15;;;;;;;6.59;63.82;101071.41;4433159;32;20158;-76
2021/04/08 03:58:22;;;;;;;14.57;3.60;;;;;;;6.60;64.17;101065.41;4434482;32;20080;-75
2021/04/08 04:00:49;;;;;;;11.15;3.58;;;;;;;6.64;64.19;101052.22;4434479;32;20080;-75
2021/04/08 04:03:16;;;;;;;9.45;3.10;;;;;;;6.57;64.72;101048.66;4434266;32;20442;-76
2021/04/08 04:05:43;;;;;;;10.10;3.22;;;;;;;6.61;64.83;101055.03;4434255;32;20414;-75
2021/04/08 04:08:11;;;;;;;7.40;2.95;;;;;;;6.55;65.08;101045.44;4432175;32;20364;-75
2021/04/08 04:10:39;;;;;;;12.07;3.00;;;;;;;6.68;64.95;101043.81;4424361;32;20038;-75
2021/04/08 04:13:06;;;;;;;19.37;3.75;;;;;;;6.75;65.09;101033.37;4426695;32;20009;-75
2021/04/08 04:15:34;;;;;;;15.30;3.20;;;;;;;6.74;65.08;101036.59;4424081;32;20057;-75
2021/04/08 04:18:09;;;;;;;7.87;3.25;;;;;;;6.78;65.20;101032.56;4423815;32;20418;-75
2021/04/08 04:20:35;;;;;;;10.13;3.47;;;;;;;6.75;65.85;101018.62;4423779;32;20930;-75
2021/04/08 04:23:02;;;;;;;11.35;3.33;;;;;;;6.85;65.87;101010.19;4423369;32;20059;-75
2021/04/08 04:25:28;;;;;;;10.82;2.83;;;;;;;6.75;66.30;101018.62;4424688;32;20477;-77
2021/04/08 04:27:54;;;;;;;9.50;3.03;;;;;;;6.66;67.03;101002.25;4422947;32;20046;-75
2021/04/08 04:30:20;;;;;;;8.27;3.10;;;;;;;6.62;67.33;100997.88;4427803;32;20048;-75
2021/04/08 04:32:47;;;;;;;9.27;3.12;;;;;;;6.53;68.05;100994.75;4427343;32;20026;-75
2021/04/08 04:35:13;;;;;;;6.57;3.00;;;;;;;6.52;68.24;100996.75;4427319;32;20576;-75
2021/04/08 04:37:38;;;;;;;10.50;4.53;;;;;;;6.62;68.16;101007.06;4427662;32;20027;-75
2021/04/08 04:40:05;;;;;;;8.73;3.22;;;;;;;6.72;68.10;100983.84;4424938;32;20327;-75
2021/04/08 04:42:34;;;;;;;8.20;3.40;;;;;;;6.52;68.92;100981.94;4425333;32;20099;-75
2021/04/08 04:45:00;;;;;;;12.77;3.70;;;;;;;6.53;68.98;100975.19;4424391;32;20096;-75
2021/04/08 04:47:26;;;;;;;8.40;3.37;;;;;;;6.47;69.54;100960.03;4422289;32;20075;-75
2021/04/08 04:49:52;;;;;;;10.68;3.40;;;;;;;6.51;69.53;100975.59;4428394;32;20116;-75
2021/04/08 04:52:18;;;;;;;10.68;3.35;;;;;;;6.73;69.34;100976.28;4426823;32;20113;-76
2021/04/08 04:54:44;;;;;;;7.65;3.15;;;;;;;6.74;69.29;100969.47;4425509;32;21192;-75
2021/04/08 04:57:10;;;;;;;8.32;3.58;;;;;;;6.71;69.77;100968.28;4426395;32;20108;-76
2021/04/08 04:59:36;;;;;;;6.20;2.95;;;;;;;6.76;70.04;100978.25;4423850;32;20107;-75
2021/04/08 05:02:02;;;;;;;9.90;3.25;;;;;;;6.62;71.02;100976.31;4422796;32;20076;-75
2021/04/08 05:04:28;;;;;;;11.15;4.70;;;;;;;6.67;71.30;100984.28;4428257;32;20037;-75
2021/04/08 05:06:53;;;;;;;11.30;3.42;;;;;;;6.72;71.47;100988.66;4425059;32;20403;-75
2021/04/08 05:09:19;;;;;;;5.62;3.40;;;;;;;6.73;71.71;100984.66;4423315;32;20060;-75
2021/04/08 05:11:45;;;;;;;11.07;3.70;;;;;;;6.59;72.40;100979.16;4423327;32;20029;-75
2021/04/08 05:14:11;;;;;;;7.60;3.95;;;;;;;6.62;72.93;100972.72;4424378;32;20085;-75
2021/04/08 05:16:36;;;;;;;7.65;4.32;;;;;;;6.61;73.21;100985.91;4424819;32;20070;-76
2021/04/08 05:19:02;;;;;;;12.73;4.60;;;;;;;6.65;73.43;100980.28;4420309;32;20073;-75
2021/04/08 05:21:28;;;;;;;5.68;3.60;;;;;;;6.70;73.74;100979.87;4425584;32;20033;-75
2021/04/08 05:23:54;;;;;;;9.70;3.50;;;;;;;6.76;73.67;100981.88;4423859;32;20076;-75
2021/04/08 05:26:20;;;;;;;8.13;3.97;;;;;;;6.86;73.07;100994.19;4422944;32;20100;-75
2021/04/08 05:28:46;;;;;;;6.57;3.28;;;;;;;6.98;73.13;100986.13;4420791;32;20037;-75
2021/04/08 05:31:12;;;;;;;5.47;3.17;;;;;;;7.22;72.44;100982.41;4424843;32;20140;-76
2021/04/08 05:33:37;;;;;;;5.20;3.60;;;;;;;7.28;72.18;100988.34;4422748;32;20034;-76
2021/04/08 05:36:03;;;;;;;8.70;3.37;;;;;;;7.41;72.09;100976.25;4426895;32;20057;-75
2021/04/08 05:38:29;;;;;;;7.03;3.10;;;;;;;7.64;71.46;100979.25;4425924;32;20078;-76
2021/04/08 05:40:54;;;;;;;6.50;3.00;;;;;;;7.78;70.98;100978.34;4424420;32;20069;-76
2021/04/08 05:43:20;;;;;;;7.43;3.22;;;;;;;7.85;70.75;100970.66;4421144;32;20523;-75
2021/04/08 05:45:46;;;;;;;5.93;2.83;;;;;;;7.94;70.35;100973.78;4421540;32;20062;-76
2021/04/08 05:48:13;;;;;;;4.60;3.08;;;;;;;8.03;69.93;100971.31;4425499;32;20084;-76
2021/04/08 05:50:39;;;;;;;7.30;2.62;;;;;;;8.08;69.86;100967.25;4423972;32;20067;-75
2021/04/08 05:53:05;;;;;;;7.00;3.40;;;;;;;8.11;69.50;100972.03;4422445;32;20030;-76
2021/04/08 05:55:30;;;;;;;4.60;2.83;;;;;;;8.10;69.74;100976.00;4423156;32;20034;-76
2021/04/08 05:57:56;;;;;;;8.13;3.25;;;;;;;8.11;69.45;100966.41;4421533;32;20071;-75
2021/04/08 06:00:22;;;;;;;16.10;4.05;;;;;;;7.98;70.38;100973.75;4423119;32;20081;-76
2021/04/08 06:02:48;;;;;;;6.43;3.30;;;;;;;7.92;71.75;100970.59;4423342;32;20431;-76
2021/04/08 06:05:15;;;;;;;7.55;3.97;;;;;;;8.08;71.77;100961.66;4424736;32;20138;-76
2021/04/08 06:07:41;;;;;;;6.68;3.80;;;;;;;8.06;72.79;100959.25;4423630;32;20033;-76
2021/04/08 06:10:08;;;;;;;9.15;3.70;;;;;;;8.10;73.13;100951.59;4420796;32;20113;-76
2021/04/08 06:12:34;;;;;;;8.02;3.58;;;;;;;8.07;73.50;100949.63;4425215;32;20033;-76
2021/04/08 06:14:59;;;;;;;7.95;3.65;;;;;;;8.39;72.67;100948.50;4422086;32;20069;-75
2021/04/08 06:17:25;;;;;;;12.48;4.10;;;;;;;8.29;73.08;100944.63;4422641;32;20138;-76
2021/04/08 06:19:52;;;;;;;6.37;3.83;;;;;;;8.59;72.09;100953.06;4426519;32;20041;-76
2021/04/08 06:22:17;;;;;;;10.35;3.97;;;;;;;8.66;71.71;100944.56;4421933;32;20181;-75
2021/04/08 06:24:43;;;;;;;5.53;3.50;;;;;;;8.72;71.59;100950.50;4425019;32;20408;-76
2021/04/08 06:27:09;;;;;;;7.53;3.85;;;;;;;8.63;72.11;100953.00;4421804;32;20026;-75
2021/04/08 06:29:35;;;;;;;9.18;4.30;;;;;;;8.51;73.00;100942.34;4422863;32;20013;-76
2021/04/08 06:32:01;;;;;;;8.68;4.00;;;;;;;8.34;74.06;100946.94;4423358;32;20094;-76
2021/04/08 06:34:28;;;;;;;9.00;4.50;;;;;;;8.06;75.32;100950.84;4425192;32;20085;-76
2021/04/08 06:36:54;;;;;;;32.00;17.50;;;;;;;7.92;76.44;100944.59;4422262;32;20038;-75
2021/04/08 06:39:20;;;;;;;14.18;4.80;;;;;;;7.96;76.79;100948.97;4422536;32;20032;-75
2021/04/08 06:41:46;;;;;;;10.63;5.45;;;;;;;8.09;76.96;100949.22;4429122;32;20094;-75
2021/04/08 06:44:15;;;;;;;9.40;4.55;;;;;;;8.23;76.68;100935.09;4423557;32;20412;-75
2021/04/08 06:46:42;;;;;;;9.30;4.72;;;;;;;8.35;75.78;100942.94;4419462;32;20010;-75
2021/04/08 06:49:19;;;;;;;10.13;4.20;;;;;;;8.73;74.19;100952.88;4422024;32;20057;-76
2021/04/08 06:51:50;;;;;;;9.43;4.95;;;;;;;8.93;73.10;100951.00;4424387;32;20042;-76
2021/04/08 06:54:17;;;;;;;8.68;4.60;;;;;;;9.16;72.28;100945.44;4421636;32;20100;-76
2021/04/08 06:56:43;;;;;;;10.45;5.18;;;;;;;9.34;71.19;100953.59;4423536;32;20366;-76
2021/04/08 06:59:11;;;;;;;8.57;4.93;;;;;;;9.40;70.30;100947.09;4421835;32;20099;-76
2021/04/08 07:01:37;;;;;;;10.65;5.55;;;;;;;9.56;69.98;100946.41;4420643;32;20433;-76
2021/04/08 07:04:05;;;;;;;11.95;6.72;;;;;;;9.75;69.10;100938.06;4419509;32;20110;-76
2021/04/08 07:06:31;;;;;;;11.23;6.45;;;;;;;10.05;68.23;100937.91;4420765;32;20551;-76
2021/04/08 07:08:57;;;;;;;13.82;7.40;;;;;;;10.18;67.47;100946.53;4419808;32;20025;-75
2021/04/08 07:11:25;;;;;;;15.43;7.20;;;;;;;10.58;66.10;100942.50;4423000;32;20037;-75
2021/04/08 07:13:51;;;;;;;11.32;7.10;;;;;;;11.01;64.09;100942.34;4421208;32;20069;-75
2021/04/08 07:16:16;;;;;;;16.17;8.68;;;;;;;11.33;62.22;100942.44;4419349;32;20445;-75
2021/04/08 07:18:42;;;;;;;22.67;9.15;;;;;;;11.47;61.42;100936.44;4418616;32;20089;-76
2021/04/08 07:21:09;;;;;;;16.05;7.40;;;;;;;11.67;60.98;100942.81;4419567;32;20046;-76
2021/04/08 07:23:34;;;;;;;17.83;7.90;;;;;;;11.78;59.90;100935.66;4420578;32;20077;-76
2021/04/08 07:31:29;;;;;;;15.13;5.87;;;;;;;12.33;57.84;100948.69;3985000;32;15028722;-74
2021/04/08 07:33:57;;;;;;;19.70;7.25;;;;;;;12.33;57.84;100948.69;4433494;32;20125;-74
2021/04/08 07:36:34;;;;;;;16.65;5.75;;;;;;;12.22;57.80;100928.47;4434192;32;20107;-74
2021/04/08 07:39:16;;;;;;;19.35;6.65;;;;;;;12.17;57.00;100934.63;4439020;32;20420;-74
2021/04/08 07:41:43;;;;;;;22.87;5.50;;;;;;;12.32;56.99;100924.53;4435048;32;20059;-75
2021/04/08 07:44:11;;;;;;;19.27;4.85;;;;;;;12.59;55.85;100924.16;4435626;32;20545;-74
2021/04/08 07:46:45;;;;;;;20.27;4.85;;;;;;;12.68;55.66;100922.28;4438436;32;20065;-74
2021/04/08 07:49:31;;;;;;;28.10;4.82;;;;;;;12.58;55.80;100920.53;4434604;32;20393;-74
2021/04/08 07:52:13;;;;;;;24.42;4.07;;;;;;;12.38;56.23;100917.09;4435517;32;20074;-74
2021/04/08 07:54:40;;;;;;;30.73;3.60;;;;;;;12.74;55.40;100928.97;4433323;32;20446;-74
2021/04/08 07:57:05;;;;;;;11.65;2.58;;;;;;;12.59;54.58;100907.22;4438856;32;20052;-74
2021/04/08 07:59:32;;;;;;;9.73;2.30;;;;;;;13.01;53.53;100920.09;4433175;32;20389;-74
2021/04/08 08:04:35;;;;;;;22.48;3.12;;;;;;;13.83;51.13;100926.25;3984807;32;15025029;-76
2021/04/08 08:07:02;;;;;;;33.03;2.72;;;;;;;13.83;51.13;100926.25;4431753;32;20045;-76
2021/04/08 08:09:30;;;;;;;13.90;1.65;;;;;;;13.30;51.74;100920.78;4435462;32;20470;-76
2021/04/08 08:12:07;;;;;;;9.95;1.30;;;;;;;13.27;50.76;100921.69;4436440;32;20101;-76
2021/04/08 08:14:34;;;;;;;17.23;1.98;;;;;;;13.45;50.16;100910.59;4433664;32;20045;-75
2021/04/08 08:19:42;;;;;;;21.20;3.30;;;;;;;13.81;48.67;100913.81;3985955;32;15039483;-76
2021/04/08 08:22:09;;;;;;;8.05;1.60;;;;;;;13.98;48.40;100907.53;4439216;32;20100;-76
2021/04/08 08:24:34;;;;;;;9.00;1.27;;;;;;;14.22;47.80;100898.59;4435723;32;20029;-75
2021/04/08 08:27:00;;;;;;;17.12;2.10;;;;;;;14.02;48.33;100896.88;4439953;32;20141;-76
2021/04/08 08:29:29;;;;;;;24.80;2.37;;;;;;;14.17;48.19;100904.87;4440444;32;20044;-76
2021/04/08 08:32:00;;;;;;;20.77;3.50;;;;;;;14.33;48.00;100899.81;4441233;32;20072;-76
2021/04/08 08:34:36;;;;;;;6.85;2.05;;;;;;;14.35;47.79;100894.47;4439746;32;20025;-73
2021/04/08 08:37:07;;;;;;;8.63;2.35;;;;;;;14.01;47.91;100898.13;4441257;32;20065;-74
2021/04/08 08:39:39;;;;;;;14.48;2.33;;;;;;;14.07;47.69;100899.13;4441608;32;20068;-74
2021/04/08 08:42:08;;;;;;;8.68;2.37;;;;;;;14.30;47.57;100899.97;4438977;32;20413;-74
2021/04/08 08:44:34;;;;;;;8.20;1.87;;;;;;;14.52;46.91;100897.91;4442459;32;20041;-75
2021/04/08 08:49:42;;;;;;;5.00;1.40;;;;;;;15.02;46.07;100904.03;3956114;32;15724077;-74
2021/04/08 08:52:10;;;;;;;11.90;2.08;;;;;;;15.02;46.07;100904.03;4438247;32;20025;-74
2021/04/08 08:54:36;;;;;;;8.23;1.40;;;;;;;14.64;46.57;100894.22;4437641;32;20090;-74
2021/04/08 08:57:04;;;;;;;9.90;1.77;;;;;;;14.61;46.66;100906.47;4436935;32;20045;-74
2021/04/08 08:59:30;;;;;;;10.00;1.48;;;;;;;14.71;46.53;100908.09;4436858;32;20115;-74
2021/04/08 09:01:57;;;;;;;10.98;1.90;;;;;;;14.55;46.80;100909.13;4427934;32;20040;-74
2021/04/08 09:04:23;;;;;;;7.95;1.65;;;;;;;14.58;46.73;100905.38;4427710;32;20107;-74
2021/04/08 09:06:50;;;;;;;8.38;1.60;;;;;;;14.53;46.70;100894.63;4426305;32;20080;-73
2021/04/08 09:09:20;;;;;;;16.67;2.33;;;;;;;14.40;47.37;100901.59;4428750;32;20045;-74
2021/04/08 09:11:46;;;;;;;4.82;1.40;;;;;;;14.53;47.13;100896.66;4424192;32;20065;-74
2021/04/08 09:14:14;;;;;;;3.28;1.52;;;;;;;14.11;47.96;100893.31;4426853;32;20102;-74
2021/04/08 09:16:45;;;;;;;7.28;1.80;;;;;;;14.38;47.49;100890.72;4426067;32;20409;-74
2021/04/08 09:19:13;;;;;;;9.27;2.00;;;;;;;14.31;47.48;100890.19;4427422;32;20029;-74
2021/04/08 09:21:45;;;;;;;10.35;1.87;;;;;;;14.26;47.77;100888.75;4433179;32;20094;-74
2021/04/08 09:26:50;;;;;;;7.37;1.67;;;;;;;14.80;46.82;100900.47;3955299;32;15776728;-76
2021/04/08 09:32:32;;;;;;;7.25;2.12;;;;;;;14.29;47.86;100895.56;3984539;32;15030548;-76
2021/04/08 09:43:05;;;;;;;9.87;1.77;;;;;;;14.12;47.92;100874.31;3993540;31;15053802;-73
2021/04/08 09:45:33;;;;;;;10.82;2.20;;;;;;;14.12;47.92;100874.31;4455316;32;20041;-73
2021/04/08 09:48:21;;;;;;;5.18;1.42;;;;;;;13.69;48.78;100875.81;4454810;32;20052;-74
2021/04/08 09:53:29;;;;;;;12.40;1.87;;;;;;;14.61;47.24;100852.66;3986470;32;15022944;-76
2021/04/08 09:58:32;;;;;;;8.70;1.95;;;;;;;14.41;47.15;100855.84;3957644;32;15724601;-76
2021/04/08 10:01:02;;;;;;;15.77;2.45;;;;;;;14.57;46.21;100858.44;4435547;32;20045;-76
2021/04/08 10:06:24;;;;;;;5.70;1.65;;;;;;;14.91;45.08;100860.37;3984780;32;15021494;-75
2021/04/08 10:08:51;;;;;;;9.00;2.33;;;;;;;15.11;44.44;100861.56;4441037;32;20331;-76
2021/04/08 10:11:26;;;;;;;6.50;1.50;;;;;;;15.09;43.99;100852.72;4440099;32;20166;-75
2021/04/08 10:13:52;;;;;;;5.93;1.27;;;;;;;15.38;43.60;100852.38;4439553;32;20057;-76
2021/04/08 10:16:18;;;;;;;12.40;2.08;;;;;;;15.09;43.36;100846.25;4443042;32;20091;-76
2021/04/08 10:18:45;;;;;;;12.43;1.90;;;;;;;14.69;43.80;100849.06;4438321;32;20425;-76
2021/04/08 10:21:14;;;;;;;9.15;1.70;;;;;;;14.89;43.64;100845.88;4438904;32;20063;-76
2021/04/08 10:23:47;;;;;;;4.62;1.17;;;;;;;15.16;43.08;100840.31;4440280;32;20081;-76
2021/04/08 10:26:32;;;;;;;8.02;1.40;;;;;;;15.50;42.17;100843.72;4440855;32;20077;-76
2021/04/08 10:29:00;;;;;;;8.35;1.73;;;;;;;15.15;41.95;100827.37;4438830;32;20037;-73
2021/04/08 10:31:30;;;;;;;8.40;1.45;;;;;;;15.05;42.40;100839.94;4441493;32;20059;-76
2021/04/08 10:36:49;;;;;;;12.07;2.53;;;;;;;16.01;40.72;100826.91;3957945;32;15730491;-74
2021/04/08 10:39:19;;;;;;;5.20;1.50;;;;;;;16.01;40.72;100826.91;4432267;32;20072;-75
2021/04/08 10:42:04;;;;;;;6.70;1.50;;;;;;;15.65;40.66;100829.75;4432880;32;20091;-74
2021/04/08 10:47:21;;;;;;;5.68;1.27;;;;;;;15.46;40.26;100822.44;3982296;32;15023720;-74
2021/04/08 10:57:33;;;;;;;2.70;1.45;;;;;;;15.05;41.00;100840.75;3985606;32;15027220;-74
2021/04/08 11:00:03;;;;;;;4.68;1.20;;;;;;;14.31;41.42;100859.06;4436959;32;20060;-75
2021/04/08 11:02:32;;;;;;;8.75;2.08;;;;;;;14.18;41.67;100815.84;4425585;32;21087;-74
2021/04/08 11:05:02;;;;;;;9.02;1.48;;;;;;;14.00;42.36;100825.00;4425189;32;20100;-76
2021/04/08 11:07:35;;;;;;;6.18;1.48;;;;;;;14.08;42.17;100815.78;4426976;32;20042;-74
2021/04/08 11:10:10;;;;;;;7.35;1.33;;;;;;;14.20;41.89;100810.53;4423959;32;20383;-74
2021/04/08 11:12:36;;;;;;;8.82;1.33;;;;;;;14.02;42.73;100806.31;4420886;32;20078;-74
2021/04/08 11:15:04;;;;;;;6.82;1.42;;;;;;;14.34;42.30;100801.53;4422617;32;20387;-74
2021/04/08 11:17:32;;;;;;;5.50;1.20;;;;;;;14.66;41.40;100818.84;4436598;32;20082;-74
2021/04/08 11:19:59;;;;;;;12.45;1.45;;;;;;;14.75;40.17;100810.41;4425779;32;20065;-74
2021/04/08 11:22:29;;;;;;;9.02;1.92;;;;;;;14.59;40.40;100807.81;4423595;32;20090;-74
2021/04/08 11:24:56;;;;;;;5.97;0.90;;;;;;;14.67;40.77;100811.91;4422444;32;20411;-74
2021/04/08 11:27:33;;;;;;;5.90;0.98;;;;;;;14.57;41.29;100804.62;4424829;32;20026;-74
2021/04/08 11:29:59;;;;;;;6.80;1.50;;;;;;;14.47;41.76;100785.22;4426058;32;20021;-74
2021/04/08 11:32:26;;;;;;;8.88;1.40;;;;;;;14.33;42.68;100785.78;4424066;32;20022;-75
2021/04/08 11:34:55;;;;;;;7.32;1.77;;;;;;;14.51;42.98;100780.25;4426958;32;20095;-74
2021/04/08 11:37:41;;;;;;;5.60;1.77;;;;;;;14.43;43.16;100776.09;4424366;32;20014;-74
2021/04/08 11:40:09;;;;;;;9.45;1.60;;;;;;;14.30;43.20;100789.56;4419300;32;20541;-74
2021/04/08 11:42:39;;;;;;;8.77;1.85;;;;;;;14.23;42.92;100770.78;4422770;32;20077;-74
2021/04/08 11:48:05;;;;;;;14.77;1.33;;;;;;;14.36;40.22;100793.37;3956807;32;15727125;-75
2021/04/08 11:50:34;;;;;;;10.65;1.20;;;;;;;14.36;40.22;100793.37;4433910;32;20077;-76
2021/04/08 11:53:06;;;;;;;4.97;0.70;;;;;;;13.41;41.83;100779.87;4436942;32;20029;-75
2021/04/08 11:55:51;;;;;;;8.45;0.82;;;;;;;13.39;41.88;100754.91;4433543;32;20092;-75
2021/04/08 12:01:17;;;;;;;4.50;0.55;;;;;;;14.24;41.05;100751.78;3995251;31;15016196;-76
2021/04/08 12:03:46;;;;;;;8.00;1.30;;;;;;;14.24;41.05;100751.78;4449261;32;20040;-76
2021/04/08 12:06:16;;;;;;;3.78;1.40;;;;;;;13.84;41.73;100731.84;4448112;32;20021;-73
2021/04/08 12:08:46;;;;;;;6.43;1.02;;;;;;;14.05;41.32;100739.50;4450599;32;20041;-73
2021/04/08 12:11:13;;;;;;;2.42;0.70;;;;;;;14.08;40.83;100732.94;4447288;32;20033;-76
2021/04/08 12:13:42;;;;;;;6.05;1.58;;;;;;;14.08;40.84;100730.91;4452625;32;20111;-74
2021/04/08 12:16:22;;;;;;;2.05;0.70;;;;;;;14.38;40.21;100748.38;4447217;32;20025;-74
2021/04/08 12:18:48;;;;;;;4.28;0.80;;;;;;;14.41;40.24;100753.09;4445820;32;20058;-74
2021/04/08 12:21:14;;;;;;;4.65;0.70;;;;;;;14.44;40.06;100735.19;4434333;32;20530;-74
2021/04/08 12:23:40;;;;;;;10.02;1.30;;;;;;;14.38;39.72;100737.03;4449993;32;20057;-73
2021/04/08 12:26:07;;;;;;;7.65;1.05;;;;;;;14.65;39.70;100723.00;4446653;32;20029;-74
2021/04/08 12:28:33;;;;;;;5.15;0.75;;;;;;;14.56;39.50;100711.66;4446335;32;20405;-74
2021/04/08 12:31:00;;;;;;;8.45;0.80;;;;;;;14.37;39.69;100727.00;4449887;32;20186;-74
2021/04/08 12:33:30;;;;;;;6.55;0.70;;;;;;;14.32;40.07;100702.91;4448780;32;20121;-73
2021/04/08 12:35:59;;;;;;;28.95;1.90;;;;;;;14.33;40.15;100701.63;4448572;32;20037;-74